Flight Track Log - Related Links

Times and Time Zones

All times are in EST time to prevent confusion due to time zone crossing. See the OPT332 flight status page for this flight to view local times or setup timezone preferences in your user account.

Time Position Orientation Groundspeed Altitude Reporting Facility
EST Latitude Longitude Course Direction KTS MPH feet Rate Location/Type
Mon 10:33:37 PM 34.1817 -119.3514 73° East 280 322 9,600  Level FlightAware ADS-B
Mon 10:34:24 PM 34.1483 -119.4106 73° East 298 343 12,800 3,578 Climbing Los Angeles Center
Mon 10:35:26 PM 34.0886 -119.3553 143° Southeast 290 334 16,100 3,073 Climbing Los Angeles Center
Mon 10:36:00 PM 34.4848 -118.5489 73° East  Level Estimated
Mon 10:36:27 PM 34.0772 -119.2567 98° East 295 339 19,100  Level Los Angeles Center
Mon 10:37:29 PM 34.1092 -119.1678 67° East 290 334 22,200 2,732 Climbing Los Angeles Center
Mon 10:38:30 PM 34.1383 -119.0797 68° East 283 326 24,700 2,488 Climbing Los Angeles Center
Mon 10:39:32 PM 34.1694 -118.9872 68° East 294 338 27,300 1,935 Climbing Los Angeles Center
Mon 10:40:34 PM 34.2042 -118.8875 67° East 317 365 28,700 829 Climbing Los Angeles Center
Mon 10:41:35 PM 34.2442 -118.7717 67° East 368 423 29,000 146 Climbing Los Angeles Center
Mon 10:42:37 PM 34.2950 -118.6200 68° East 402 463 29,000  Level Los Angeles Center
Mon 10:43:39 PM 34.3389 -118.4906 68° East 411 473 29,000  Level Los Angeles Center
Mon 10:49:45 PM 34.6023 -117.6963 68° East 413 475 29,000  Level FlightAware ADS-B
Mon 10:50:50 PM 34.6428 -117.5706 68° East 412 474 29,000  Level Los Angeles Center
Mon 10:51:52 PM 34.6839 -117.4431 69° East 410 472 29,000  Level Los Angeles Center
Mon 10:52:53 PM 34.7256 -117.3161 68° East 408 470 29,000  Level Los Angeles Center
Mon 10:53:55 PM 34.7747 -117.1622 69° East 410 472 29,000  Level Los Angeles Center
Mon 10:55:09 PM 34.8233 -117.0103 69° East 407 468 29,000  Level Los Angeles Center
Mon 10:56:11 PM 34.8650 -116.8811 69° East 410 472 29,000  Level Los Angeles Center
Mon 10:57:12 PM 34.9186 -116.7625 61° Northeast 399 459 29,000 -244 Level Los Angeles Center
Mon 10:58:14 PM 34.9769 -116.6478 58° Northeast 398 458 28,500 -1,258 Descending Los Angeles Center
Mon 10:59:16 PM 35.0364 -116.5311 58° Northeast 404 465 26,400 -2,341 Descending Los Angeles Center
Mon 11:00:17 PM 35.1106 -116.3869 58° Northeast 416 479 23,700 -2,195 Descending Los Angeles Center
Mon 11:01:19 PM 35.1925 -116.2878 45° Northeast 416 479 21,900 -1,645 Descending Los Angeles Center
Mon 11:02:21 PM 35.2700 -116.1903 46° Northeast 403 464 20,300 -1,415 Descending Los Angeles Center
Mon 11:03:22 PM 35.3453 -116.0950 46° Northeast 393 452 19,000 -1,171 Descending Los Angeles Center
Mon 11:04:24 PM 35.4189 -116.0014 46° Northeast 384 442 17,900 -1,253 Descending Los Angeles Center
Mon 11:04:53 PM 35.4647 -115.9483 43° Northeast 386 444 17,100 -1,377 Descending Los Angeles Center
Mon 11:05:25 PM 35.4936 -115.9086 48° Northeast 384 442 16,500 -1,433 Descending Los Angeles Center
Mon 11:06:00 PM 35.5503 -115.8444 43° Northeast 377 434 15,500 -1,355 Descending Los Angeles Center
Mon 11:06:27 PM 35.5664 -115.8131 58° Northeast 373 429 15,100 -1,222 Descending Los Angeles Center
Mon 11:06:54 PM 35.6044 -115.7744 40° Northeast 334 384 14,400 -1,258 Descending Los Angeles Center
Mon 11:07:29 PM 35.6392 -115.7236 50° Northeast 311 358 13,800 -1,164 Descending Los Angeles Center
Mon 11:08:01 PM 35.6719 -115.6867 42° Northeast 307 353 13,100 -1,082 Descending Los Angeles Center
Mon 11:08:30 PM 35.6972 -115.6439 54° Northeast 311 358 12,700 -1,082 Descending Los Angeles Center
Mon 11:09:02 PM 35.7136 -115.5994 66° East 294 338 12,000 -1,355 Descending Los Angeles Center
Mon 11:09:32 PM 35.7292 -115.5536 67° East 292 336 11,300 -1,475 Descending Los Angeles Center
Mon 11:10:03 PM 35.7467 -115.5119 63° Northeast 280 322 10,500 -1,475 Descending Los Angeles Center
Mon 11:10:33 PM 35.7606 -115.4694 68° East 282 325 9,800 -1,869 Descending Los Angeles Center
Mon 11:11:04 PM 35.7792 -115.4219 64° Northeast 275 316 8,600 -1,548 Descending Los Angeles Center
Mon 11:11:35 PM 35.7922 -115.3875 65° Northeast 275 316 8,200 -896 Descending Los Angeles Center
Mon 11:12:11 PM 35.8094 -115.3433 64° Northeast 228 262 7,600 -774 Descending Los Angeles Center
Mon 11:12:37 PM 35.8178 -115.3189 67° East 250 288 7,400 -492 Descending Los Angeles Center
Mon 11:13:12 PM 35.8494 -115.2983 28° Northeast 206 237 7,100 -295 Descending Los Angeles Center
Mon 11:13:38 PM 35.8661 -115.2894 23° Northeast 218 251 7,100 -689 Level Los Angeles Center
Mon 11:14:13 PM 35.8978 -115.2719 24° Northeast 176 203 6,400 -1,065 Descending Los Angeles Center
Mon 11:14:40 PM 35.9183 -115.2592 27° Northeast 190 219 6,000 -1,000 Descending Los Angeles Center
Mon 11:15:07 PM 35.9344 -115.2519 20° North 166 191 5,500 -885 Descending Los Angeles Center
Mon 11:15:41 PM 35.9519 -115.2397 29° Northeast 179 206 5,100 -896 Descending Los Angeles Center
Mon 11:16:14 PM 35.9803 -115.2236 25° Northeast 150 173 4,500 -581 Descending Los Angeles Center
Mon 11:16:43 PM 35.9931 -115.2167 24° Northeast 172 198 4,500 -873 Level Los Angeles Center
Mon 11:17:09 PM 36.0133 -115.2075 20° North 140 161 3,700 -1,161 Descending Los Angeles Center
Mon 11:17:45 PM 36.0303 -115.1939 33° Northeast 159 183 3,300 -627 Descending Los Angeles Center
Mon 11:18:16 PM 36.0439 -115.1894 15° North 112 129 3,000 -590 Descending Los Angeles Center
Mon 11:18:46 PM 36.0564 -115.1803 31° Northeast 130 150 2,700 -667 Descending Los Angeles Center
Mon 11:19:10 PM 36.0686 -115.1733 25° Northeast 111 128 2,400 -581 Descending Los Angeles Center
Mon 11:19:48 PM 36.0822 -115.1644 28° Northeast 124 143 2,100 -474 Descending Los Angeles Center
Mon 11:21:00 PM 36.0801 -115.1523 95° East  Level Estimated

Login

Don't have an account? Register now (free) for customized features, flight alerts, and more!